Time;durP1;ratioP1;P1;durP2;ratioP2;P2;SDS_P1;SDS_P2;PMS_P1;PMS_P2;Temp;Humidity;BMP_temperature;BMP_pressure;BME280_temperature;BME280_humidity;BME280_pressure;Samples;Min_cycle;Max_cycle;Signal;HPM_P1;HPM_P2
2022/07/25 00:01:22;;;;;;;;;;;18.60;99.90;;;;;;5085650;28;20659;-70
2022/07/25 00:03:48;;;;;;;;;;;18.60;99.90;;;;;;5073951;28;19917;-70
2022/07/25 00:06:13;;;;;;;;;;;18.60;99.90;;;;;;5073827;28;19948;-71
2022/07/25 00:08:39;;;;;;;;;;;18.60;99.90;;;;;;5073969;28;19916;-71
2022/07/25 00:11:04;;;;;;;;;;;18.60;99.90;;;;;;5073497;28;19908;-70
2022/07/25 00:13:30;;;;;;;;;;;18.60;99.90;;;;;;5073898;28;20383;-70
2022/07/25 00:15:55;;;;;;;;;;;18.60;99.90;;;;;;5089129;28;19955;-70
2022/07/25 00:18:21;;;;;;;;;;;18.60;99.90;;;;;;5073963;28;19924;-70
2022/07/25 00:20:46;;;;;;;;;;;18.60;99.90;;;;;;5073639;28;20439;-70
2022/07/25 00:23:11;;;;;;;;;;;18.50;99.90;;;;;;5073422;28;19920;-71
2022/07/25 00:25:37;;;;;;;;;;;18.50;99.90;;;;;;5073777;28;19959;-70
2022/07/25 00:28:02;;;;;;;;;;;18.60;99.90;;;;;;5073698;28;20292;-71
2022/07/25 00:30:28;;;;;;;;;;;18.50;99.90;;;;;;5073423;28;19908;-71
2022/07/25 00:32:53;;;;;;;;;;;18.50;99.90;;;;;;5073397;28;19923;-70
2022/07/25 00:35:19;;;;;;;;;;;18.40;99.90;;;;;;5073203;28;19995;-70
2022/07/25 00:37:44;;;;;;;;;;;18.40;99.90;;;;;;5073045;28;19933;-70
2022/07/25 00:40:10;;;;;;;;;;;18.30;99.90;;;;;;5073127;28;19915;-70
2022/07/25 00:42:36;;;;;;;;;;;18.30;99.90;;;;;;5073246;28;20019;-70
2022/07/25 00:45:02;;;;;;;;;;;18.30;99.90;;;;;;5073078;28;19908;-70
2022/07/25 00:47:27;;;;;;;;;;;18.30;99.90;;;;;;5073219;28;19923;-71
2022/07/25 00:49:53;;;;;;;;;;;18.20;99.90;;;;;;5072896;28;20365;-71
2022/07/25 00:52:18;;;;;;;;;;;18.20;99.90;;;;;;5072990;28;19916;-70
2022/07/25 00:54:44;;;;;;;;;;;18.20;99.90;;;;;;5072754;28;20570;-71
2022/07/25 00:57:09;;;;;;;;;;;18.30;99.90;;;;;;5073100;28;19917;-71
2022/07/25 00:59:35;;;;;;;;;;;18.20;99.90;;;;;;5088122;28;19912;-71
2022/07/25 01:02:00;;;;;;;;;;;18.20;99.90;;;;;;5071371;28;20011;-71
2022/07/25 01:04:26;;;;;;;;;;;18.10;99.90;;;;;;5072504;28;20285;-71
2022/07/25 01:06:51;;;;;;;;;;;18.10;99.90;;;;;;5088079;28;20378;-71
2022/07/25 01:09:17;;;;;;;;;;;18.10;99.90;;;;;;5072562;28;19912;-71
2022/07/25 01:11:43;;;;;;;;;;;18.00;99.90;;;;;;5071494;28;20233;-71
2022/07/25 01:14:08;;;;;;;;;;;17.90;99.90;;;;;;5071482;28;19908;-71
2022/07/25 01:16:34;;;;;;;;;;;17.90;99.90;;;;;;5072541;28;20330;-71
2022/07/25 01:18:59;;;;;;;;;;;17.90;99.90;;;;;;5072701;28;19909;-71
2022/07/25 01:21:25;;;;;;;;;;;17.80;99.90;;;;;;5072215;28;19961;-71
2022/07/25 01:23:51;;;;;;;;;;;18.00;99.90;;;;;;5072432;28;20361;-71
2022/07/25 01:26:16;;;;;;;;;;;17.90;99.90;;;;;;5072078;28;19923;-71
2022/07/25 01:28:42;;;;;;;;;;;17.90;99.90;;;;;;5072236;28;19920;-71
2022/07/25 01:31:07;;;;;;;;;;;17.90;99.90;;;;;;5072192;28;19916;-71
2022/07/25 01:33:33;;;;;;;;;;;17.80;99.90;;;;;;5072631;28;20368;-71
2022/07/25 01:35:59;;;;;;;;;;;17.80;99.90;;;;;;5070766;28;19919;-71
2022/07/25 01:38:24;;;;;;;;;;;17.80;99.90;;;;;;5072221;28;19931;-71
2022/07/25 01:40:50;;;;;;;;;;;17.80;99.90;;;;;;5071822;28;19908;-71
2022/07/25 01:43:15;;;;;;;;;;;17.70;99.90;;;;;;5072302;28;20034;-71
2022/07/25 01:45:41;;;;;;;;;;;17.80;99.90;;;;;;5071850;28;19916;-71
2022/07/25 01:48:07;;;;;;;;;;;17.70;99.90;;;;;;5072278;28;19920;-71
2022/07/25 01:50:32;;;;;;;;;;;17.70;99.90;;;;;;5072005;28;19916;-71
2022/07/25 01:52:58;;;;;;;;;;;17.70;99.90;;;;;;5071947;28;19927;-71
2022/07/25 01:55:23;;;;;;;;;;;17.70;99.90;;;;;;5071692;28;20213;-71
2022/07/25 01:57:49;;;;;;;;;;;17.70;99.90;;;;;;5071883;28;19920;-71
2022/07/25 02:00:15;;;;;;;;;;;17.70;99.90;;;;;;5071567;28;19909;-71
2022/07/25 02:02:41;;;;;;;;;;;17.70;99.90;;;;;;5071748;28;20459;-71
2022/07/25 02:05:07;;;;;;;;;;;17.70;99.90;;;;;;5087217;28;19909;-71
2022/07/25 02:07:33;;;;;;;;;;;17.70;99.90;;;;;;5071720;28;19916;-71
2022/07/25 02:09:58;;;;;;;;;;;17.70;99.90;;;;;;5071393;28;19919;-71
2022/07/25 02:12:24;;;;;;;;;;;17.70;99.90;;;;;;5069968;28;19992;-71
2022/07/25 02:14:49;;;;;;;;;;;17.70;99.90;;;;;;5071241;28;20187;-71
2022/07/25 02:17:15;;;;;;;;;;;17.80;99.90;;;;;;5071354;28;20360;-71
2022/07/25 02:19:41;;;;;;;;;;;17.80;99.90;;;;;;5071145;28;19917;-71
2022/07/25 02:22:06;;;;;;;;;;;17.80;99.90;;;;;;5069655;28;19927;-71
2022/07/25 02:24:32;;;;;;;;;;;17.70;99.90;;;;;;5070632;28;19916;-71
2022/07/25 02:26:57;;;;;;;;;;;17.70;99.90;;;;;;5069616;28;19948;-71
2022/07/25 02:29:23;;;;;;;;;;;17.70;99.90;;;;;;5070948;28;19913;-71
2022/07/25 02:31:50;;;;;;;;;;;17.60;99.90;;;;;;5070917;28;19916;-71
2022/07/25 02:34:16;;;;;;;;;;;17.60;99.90;;;;;;5070959;28;20281;-71
2022/07/25 02:36:42;;;;;;;;;;;17.60;99.90;;;;;;5071003;28;19957;-71
2022/07/25 02:39:07;;;;;;;;;;;17.60;99.90;;;;;;5070758;28;20058;-71
2022/07/25 02:41:33;;;;;;;;;;;17.60;99.90;;;;;;5070742;28;19916;-71
2022/07/25 02:43:58;;;;;;;;;;;17.60;99.90;;;;;;5071053;28;20012;-71
2022/07/25 02:46:24;;;;;;;;;;;17.60;99.90;;;;;;5070720;28;19912;-71
2022/07/25 02:48:49;;;;;;;;;;;17.50;99.90;;;;;;5071453;28;19916;-72
2022/07/25 02:51:17;;;;;;;;;;;17.50;99.90;;;;;;5070849;28;20351;-70
2022/07/25 02:53:43;;;;;;;;;;;17.50;99.90;;;;;;5071058;28;19920;-70
2022/07/25 02:56:08;;;;;;;;;;;17.50;99.90;;;;;;5070698;28;19915;-70
2022/07/25 02:58:33;;;;;;;;;;;17.50;99.90;;;;;;5069327;28;20000;-70
2022/07/25 03:00:59;;;;;;;;;;;17.50;99.90;;;;;;5070489;28;19971;-70
2022/07/25 03:03:24;;;;;;;;;;;17.50;99.90;;;;;;5070840;28;20276;-70
2022/07/25 03:05:50;;;;;;;;;;;17.60;99.90;;;;;;5070489;28;19913;-71
2022/07/25 03:08:15;;;;;;;;;;;17.60;99.90;;;;;;5070894;28;20272;-71
2022/07/25 03:10:41;;;;;;;;;;;17.60;99.90;;;;;;5070325;28;19908;-71
2022/07/25 03:13:07;;;;;;;;;;;17.60;99.90;;;;;;5070709;28;19924;-71
2022/07/25 03:15:32;;;;;;;;;;;17.50;99.90;;;;;;5070472;28;19955;-71
2022/07/25 03:17:58;;;;;;;;;;;17.50;99.90;;;;;;5070630;28;19994;-71
2022/07/25 03:20:23;;;;;;;;;;;17.50;99.90;;;;;;5086013;28;20287;-71
2022/07/25 03:22:49;;;;;;;;;;;17.50;99.90;;;;;;5070456;28;20387;-71
2022/07/25 03:25:14;;;;;;;;;;;17.40;99.90;;;;;;5070195;28;19915;-71
2022/07/25 03:27:39;;;;;;;;;;;17.50;99.90;;;;;;5085536;28;20016;-71
2022/07/25 03:30:05;;;;;;;;;;;17.40;99.90;;;;;;5070340;28;19909;-71
2022/07/25 03:32:31;;;;;;;;;;;17.50;99.90;;;;;;5070368;28;20043;-71
2022/07/25 03:34:56;;;;;;;;;;;17.50;99.90;;;;;;5070237;28;19908;-71
2022/07/25 03:37:22;;;;;;;;;;;17.40;99.90;;;;;;5071558;28;19924;-71
2022/07/25 03:39:48;;;;;;;;;;;17.50;99.90;;;;;;5074261;28;19920;-71
2022/07/25 03:42:13;;;;;;;;;;;17.50;99.90;;;;;;5074381;28;19992;-71
2022/07/25 03:44:39;;;;;;;;;;;17.50;99.90;;;;;;5074478;28;20327;-71
2022/07/25 03:47:04;;;;;;;;;;;17.50;99.90;;;;;;5074185;28;19947;-71
2022/07/25 03:49:30;;;;;;;;;;;17.60;99.90;;;;;;5072859;28;19915;-71
2022/07/25 03:51:55;;;;;;;;;;;17.60;99.90;;;;;;5089484;28;19921;-71
2022/07/25 03:54:21;;;;;;;;;;;17.60;99.90;;;;;;5074040;28;20344;-71
2022/07/25 03:56:47;;;;;;;;;;;16.70;99.90;;;;;;5089248;28;19917;-71
2022/07/25 03:59:15;;;;;;;;;;;17.60;99.90;;;;;;5073871;28;20360;-71
2022/07/25 04:01:41;;;;;;;;;;;17.60;99.90;;;;;;5073588;28;19913;-71
2022/07/25 04:04:07;;;;;;;;;;;17.60;99.90;;;;;;5073744;28;20003;-71
2022/07/25 04:06:32;;;;;;;;;;;17.70;99.90;;;;;;5089307;28;19999;-71
2022/07/25 04:08:58;;;;;;;;;;;17.60;99.90;;;;;;5073890;28;20372;-71
2022/07/25 04:11:23;;;;;;;;;;;17.60;99.90;;;;;;5073921;28;19936;-71
2022/07/25 04:13:49;;;;;;;;;;;17.50;99.90;;;;;;5074104;28;19952;-71
2022/07/25 04:16:15;;;;;;;;;;;17.60;99.90;;;;;;5073797;28;19951;-72
2022/07/25 04:18:40;;;;;;;;;;;17.60;99.90;;;;;;5074101;28;19959;-69
2022/07/25 04:21:06;;;;;;;;;;;17.50;99.90;;;;;;5073556;28;20407;-71
2022/07/25 04:23:32;;;;;;;;;;;17.60;99.90;;;;;;5089269;28;19928;-70
2022/07/25 04:25:57;;;;;;;;;;;17.50;99.90;;;;;;5073344;28;19912;-69
2022/07/25 04:28:23;;;;;;;;;;;17.50;99.90;;;;;;5073649;28;20356;-71
2022/07/25 04:30:49;;;;;;;;;;;17.50;99.90;;;;;;5073509;28;19909;-71
2022/07/25 04:33:15;;;;;;;;;;;17.60;99.90;;;;;;5073733;28;19916;-71
2022/07/25 04:35:41;;;;;;;;;;;17.40;99.90;;;;;;5073089;28;19915;-71
2022/07/25 04:38:06;;;;;;;;;;;17.60;99.90;;;;;;5073411;28;19929;-71
2022/07/25 04:40:32;;;;;;;;;;;17.70;99.90;;;;;;5073488;28;19909;-71
2022/07/25 04:42:57;;;;;;;;;;;17.70;99.90;;;;;;5073231;28;20439;-71
2022/07/25 04:45:23;;;;;;;;;;;17.70;99.90;;;;;;5071963;28;20288;-71
2022/07/25 04:47:48;;;;;;;;;;;17.80;99.90;;;;;;5073147;28;19917;-71
2022/07/25 04:50:14;;;;;;;;;;;17.80;99.90;;;;;;5073037;28;20012;-71
2022/07/25 04:52:39;;;;;;;;;;;17.80;99.90;;;;;;5072981;28;19916;-71
2022/07/25 04:55:05;;;;;;;;;;;17.90;99.90;;;;;;5072778;28;19910;-71
2022/07/25 04:57:31;;;;;;;;;;;17.90;99.90;;;;;;5072904;28;19916;-70
2022/07/25 04:59:57;;;;;;;;;;;17.90;99.90;;;;;;5072977;28;19974;-71
2022/07/25 05:02:23;;;;;;;;;;;17.90;99.90;;;;;;5072805;28;19925;-71
2022/07/25 05:04:49;;;;;;;;;;;17.90;99.90;;;;;;5072661;28;19912;-71
2022/07/25 05:07:14;;;;;;;;;;;17.90;99.90;;;;;;5072885;28;19916;-70
2022/07/25 05:09:40;;;;;;;;;;;18.00;99.90;;;;;;5088003;28;20367;-70
2022/07/25 05:12:05;;;;;;;;;;;18.00;99.90;;;;;;5088290;28;19920;-70
2022/07/25 05:14:31;;;;;;;;;;;18.00;99.90;;;;;;5072540;28;19908;-70
2022/07/25 05:16:56;;;;;;;;;;;18.00;99.90;;;;;;5072691;28;19938;-71
2022/07/25 05:19:22;;;;;;;;;;;18.00;99.90;;;;;;5087876;28;19915;-71
2022/07/25 05:21:47;;;;;;;;;;;17.90;99.90;;;;;;5072417;28;19921;-71
2022/07/25 05:24:12;;;;;;;;;;;18.00;99.90;;;;;;5072235;28;19909;-71
2022/07/25 05:26:38;;;;;;;;;;;18.10;99.90;;;;;;5070666;28;19985;-71
2022/07/25 05:29:04;;;;;;;;;;;18.00;99.90;;;;;;5072027;28;20291;-72
2022/07/25 05:31:29;;;;;;;;;;;18.10;99.90;;;;;;5072528;28;20012;-71
2022/07/25 05:33:55;;;;;;;;;;;18.10;99.90;;;;;;5072161;28;19952;-71
2022/07/25 05:36:20;;;;;;;;;;;18.10;99.90;;;;;;5072412;28;19924;-71
2022/07/25 05:38:46;;;;;;;;;;;18.10;99.90;;;;;;5071990;28;19995;-72
2022/07/25 05:41:12;;;;;;;;;;;18.10;99.90;;;;;;5071891;28;19920;-71
2022/07/25 05:43:37;;;;;;;;;;;18.20;99.90;;;;;;5072288;28;20392;-71
2022/07/25 05:46:03;;;;;;;;;;;18.30;99.90;;;;;;5072379;28;19909;-71
2022/07/25 05:48:29;;;;;;;;;;;18.30;99.90;;;;;;5071739;28;19916;-71
2022/07/25 05:50:56;;;;;;;;;;;18.30;99.90;;;;;;5087472;28;20354;-71
2022/07/25 05:53:21;;;;;;;;;;;18.30;99.90;;;;;;5087189;28;20444;-71
2022/07/25 05:55:47;;;;;;;;;;;18.40;99.90;;;;;;5071723;28;20003;-71
2022/07/25 05:58:13;;;;;;;;;;;18.40;99.90;;;;;;5071764;28;19938;-71
2022/07/25 06:00:38;;;;;;;;;;;18.40;99.90;;;;;;5071036;28;19913;-71
2022/07/25 06:03:04;;;;;;;;;;;18.50;99.90;;;;;;5072358;28;19963;-71
2022/07/25 06:05:29;;;;;;;;;;;18.50;99.90;;;;;;5071536;28;19912;-72
2022/07/25 06:07:55;;;;;;;;;;;18.50;99.90;;;;;;5087029;28;19960;-72
2022/07/25 06:10:21;;;;;;;;;;;18.50;99.90;;;;;;5071430;28;20375;-72
2022/07/25 06:12:46;;;;;;;;;;;18.70;99.90;;;;;;5071665;28;19916;-70
2022/07/25 06:15:12;;;;;;;;;;;18.60;99.90;;;;;;5071446;28;19924;-71
2022/07/25 06:17:37;;;;;;;;;;;18.60;99.90;;;;;;5071399;28;19913;-72
2022/07/25 06:20:03;;;;;;;;;;;18.80;99.90;;;;;;5071354;28;19913;-71
2022/07/25 06:22:29;;;;;;;;;;;18.90;99.90;;;;;;5070983;28;19923;-72
2022/07/25 06:24:55;;;;;;;;;;;18.90;99.90;;;;;;5070984;28;20216;-71
2022/07/25 06:27:21;;;;;;;;;;;19.00;99.90;;;;;;5071431;28;19912;-71
2022/07/25 06:29:46;;;;;;;;;;;18.90;99.90;;;;;;5070874;28;19919;-71
2022/07/25 06:32:12;;;;;;;;;;;18.90;99.90;;;;;;5071074;28;19913;-71
2022/07/25 06:34:37;;;;;;;;;;;18.90;99.90;;;;;;5071000;28;20236;-71
2022/07/25 06:37:03;;;;;;;;;;;18.90;99.90;;;;;;5071089;28;19912;-71
2022/07/25 06:39:28;;;;;;;;;;;19.10;99.90;;;;;;5070695;28;20277;-71
2022/07/25 06:41:54;;;;;;;;;;;19.20;99.90;;;;;;5086245;28;19931;-71
2022/07/25 06:44:20;;;;;;;;;;;19.20;99.90;;;;;;5070996;28;20013;-71
2022/07/25 06:46:45;;;;;;;;;;;19.30;99.90;;;;;;5070657;28;19924;-71
2022/07/25 06:49:11;;;;;;;;;;;19.40;99.90;;;;;;5070740;28;19908;-71
2022/07/25 06:51:36;;;;;;;;;;;19.40;99.90;;;;;;5070722;28;19908;-71
2022/07/25 06:54:02;;;;;;;;;;;19.40;99.90;;;;;;5070405;28;19916;-71
2022/07/25 06:56:30;;;;;;;;;;;19.40;99.90;;;;;;5085957;28;19908;-71
2022/07/25 06:58:56;;;;;;;;;;;19.50;99.90;;;;;;5070602;28;20062;-71
2022/07/25 07:01:21;;;;;;;;;;;19.70;99.90;;;;;;5070700;28;19912;-70
2022/07/25 07:03:47;;;;;;;;;;;19.80;99.90;;;;;;5070931;28;20284;-70
2022/07/25 07:06:12;;;;;;;;;;;20.10;99.90;;;;;;5070616;28;19908;-70
2022/07/25 07:08:38;;;;;;;;;;;20.20;99.90;;;;;;5070926;28;19963;-70
2022/07/25 07:11:04;;;;;;;;;;;20.30;99.90;;;;;;5069825;28;19919;-71
2022/07/25 07:13:29;;;;;;;;;;;20.40;99.90;;;;;;5070343;28;20376;-71
2022/07/25 07:15:55;;;;;;;;;;;20.50;99.90;;;;;;5070256;28;20007;-71
2022/07/25 07:18:21;;;;;;;;;;;20.50;99.90;;;;;;5070621;28;19916;-71
2022/07/25 07:20:46;;;;;;;;;;;20.60;99.90;;;;;;5070152;28;20382;-71
2022/07/25 07:23:12;;;;;;;;;;;20.70;99.90;;;;;;5070631;28;20644;-71
2022/07/25 07:25:38;;;;;;;;;;;20.90;99.90;;;;;;5070036;28;20232;-72
2022/07/25 07:28:03;;;;;;;;;;;21.00;99.90;;;;;;5070755;28;19962;-71
2022/07/25 07:30:29;;;;;;;;;;;21.20;99.90;;;;;;5070105;28;19908;-72
2022/07/25 07:32:54;;;;;;;;;;;21.30;99.90;;;;;;5070479;28;19917;-71
2022/07/25 07:35:20;;;;;;;;;;;21.50;99.90;;;;;;5070123;28;20280;-70
2022/07/25 07:37:45;;;;;;;;;;;21.60;99.90;;;;;;5085512;28;19979;-70
2022/07/25 07:40:12;;;;;;;;;;;21.70;99.90;;;;;;5085457;28;19915;-70
2022/07/25 07:42:39;;;;;;;;;;;21.80;99.90;;;;;;5070319;28;19924;-71
2022/07/25 07:45:09;;;;;;;;;;;21.80;99.90;;;;;;5070086;28;20018;-71
2022/07/25 07:47:34;;;;;;;;;;;21.90;99.90;;;;;;5070197;28;19920;-70
2022/07/25 07:50:00;;;;;;;;;;;21.70;99.90;;;;;;5070242;28;19916;-71
2022/07/25 07:52:25;;;;;;;;;;;21.60;99.90;;;;;;5070381;28;19923;-70
2022/07/25 07:57:35;;;;;;;;;;;21.70;99.90;;;;;;5070184;28;19924;-72
2022/07/25 08:00:00;;;;;;;;;;;21.90;99.90;;;;;;5069800;28;20360;-72
2022/07/25 08:02:26;;;;;;;;;;;22.00;99.90;;;;;;5085266;28;19929;-71
2022/07/25 08:04:51;;;;;;;;;;;22.20;99.90;;;;;;5069859;28;19909;-71
2022/07/25 08:07:17;;;;;;;;;;;22.40;99.90;;;;;;5070080;28;20407;-71
2022/07/25 08:09:42;;;;;;;;;;;22.40;99.90;;;;;;5069690;28;19913;-72
2022/07/25 08:12:07;;;;;;;;;;;22.50;99.90;;;;;;5069871;28;20407;-71
2022/07/25 08:14:33;;;;;;;;;;;22.50;99.90;;;;;;5085233;28;19915;-71
2022/07/25 08:16:58;;;;;;;;;;;22.60;99.90;;;;;;5070012;28;20376;-71
2022/07/25 08:19:24;;;;;;;;;;;22.80;99.90;;;;;;5069617;28;19912;-71
2022/07/25 08:21:49;;;;;;;;;;;22.80;99.90;;;;;;5069618;28;19932;-71
2022/07/25 08:24:15;;;;;;;;;;;22.90;99.90;;;;;;5072653;28;19983;-71
2022/07/25 08:26:40;;;;;;;;;;;23.00;99.90;;;;;;5071938;28;20420;-71
2022/07/25 08:29:06;;;;;;;;;;;23.20;99.90;;;;;;5073338;28;19908;-71
2022/07/25 08:31:31;;;;;;;;;;;23.10;99.90;;;;;;5073096;28;19915;-72
2022/07/25 08:33:57;;;;;;;;;;;22.90;99.90;;;;;;5073204;28;19931;-72
2022/07/25 08:36:23;;;;;;;;;;;23.00;99.90;;;;;;5088538;28;19908;-66
2022/07/25 08:38:48;;;;;;;;;;;23.20;99.90;;;;;;5073096;28;20008;-66
2022/07/25 08:41:14;;;;;;;;;;;23.40;99.90;;;;;;5073092;28;20317;-66
2022/07/25 08:43:40;;;;;;;;;;;23.50;99.90;;;;;;5088930;28;19916;-66
2022/07/25 08:46:06;;;;;;;;;;;23.40;99.90;;;;;;5073232;28;20360;-65
2022/07/25 08:48:32;;;;;;;;;;;23.20;99.90;;;;;;5073252;28;20265;-68
2022/07/25 08:50:58;;;;;;;;;;;23.00;99.90;;;;;;5073164;28;19937;-67
2022/07/25 08:53:24;;;;;;;;;;;22.80;99.90;;;;;;5073299;28;20007;-68
2022/07/25 08:55:49;;;;;;;;;;;22.60;99.90;;;;;;5072909;28;20051;-66
2022/07/25 08:58:16;;;;;;;;;;;22.40;99.90;;;;;;5072917;28;20003;-66
2022/07/25 09:00:41;;;;;;;;;;;22.20;99.90;;;;;;5072622;28;19912;-67
2022/07/25 09:03:08;;;;;;;;;;;22.20;99.90;;;;;;5072760;28;19927;-66
2022/07/25 09:05:35;;;;;;;;;;;22.20;99.90;;;;;;5072531;28;20067;-66
2022/07/25 09:08:09;;;;;;;;;;;22.40;99.90;;;;;;5072753;28;19917;-66
2022/07/25 09:10:35;;;;;;;;;;;22.70;99.90;;;;;;5072691;28;19919;-67
2022/07/25 09:13:02;;;;;;;;;;;23.20;99.90;;;;;;5072983;28;19916;-66
2022/07/25 09:15:32;;;;;;;;;;;23.80;99.90;;;;;;5088079;28;19908;-66
2022/07/25 09:17:59;;;;;;;;;;;24.40;99.90;;;;;;5072642;28;19917;-66
2022/07/25 09:20:36;;;;;;;;;;;24.90;99.90;;;;;;5072519;28;19916;-67
2022/07/25 09:23:01;;;;;;;;;;;25.30;99.90;;;;;;5072417;28;19943;-66
2022/07/25 09:25:30;;;;;;;;;;;25.60;99.90;;;;;;5072056;28;19908;-67
2022/07/25 09:28:07;;;;;;;;;;;25.70;99.90;;;;;;5072039;28;19917;-67
2022/07/25 09:30:34;;;;;;;;;;;25.50;99.90;;;;;;5072203;28;20027;-66
2022/07/25 09:33:03;;;;;;;;;;;25.20;99.90;;;;;;5072182;28;20338;-66
2022/07/25 09:35:29;;;;;;;;;;;25.30;99.90;;;;;;5071402;28;19916;-66
2022/07/25 09:38:05;;;;;;;;;;;25.20;99.90;;;;;;5071856;28;20392;-68
2022/07/25 09:40:30;;;;;;;;;;;24.80;99.90;;;;;;5071715;28;19908;-66
2022/07/25 09:42:56;;;;;;;;;;;24.50;99.90;;;;;;5071797;28;19969;-68
2022/07/25 09:45:21;;;;;;;;;;;24.40;99.90;;;;;;5087315;28;19958;-65
2022/07/25 09:47:50;;;;;;;;;;;24.10;99.90;;;;;;5071875;28;20350;-67
2022/07/25 09:50:15;;;;;;;;;;;23.90;99.90;;;;;;5071720;28;19913;-67
2022/07/25 09:52:41;;;;;;;;;;;24.00;99.90;;;;;;5086865;28;19923;-67
2022/07/25 09:55:08;;;;;;;;;;;24.30;99.90;;;;;;5071565;28;19909;-66
2022/07/25 09:57:34;;;;;;;;;;;24.70;99.90;;;;;;5071670;28;20334;-66
2022/07/25 10:00:00;;;;;;;;;;;24.90;99.90;;;;;;5071465;28;19909;-67
2022/07/25 10:02:44;;;;;;;;;;;24.60;99.90;;;;;;5071360;28;19932;-67
2022/07/25 10:05:14;;;;;;;;;;;24.30;99.90;;;;;;5071773;28;19908;-66
2022/07/25 10:07:42;;;;;;;;;;;23.90;99.90;;;;;;5071661;28;20015;-65
2022/07/25 10:10:07;;;;;;;;;;;23.70;99.90;;;;;;5071377;28;19908;-67
2022/07/25 10:12:33;;;;;;;;;;;24.00;99.90;;;;;;5071332;28;20288;-65
2022/07/25 10:15:07;;;;;;;;;;;24.20;99.90;;;;;;5071719;28;19915;-65
2022/07/25 10:17:33;;;;;;;;;;;24.20;99.90;;;;;;5071372;28;19917;-66
2022/07/25 10:20:00;;;;;;;;;;;24.10;99.90;;;;;;5071149;28;19908;-66
2022/07/25 10:22:35;;;;;;;;;;;24.30;99.90;;;;;;5071131;28;19943;-66
2022/07/25 10:25:06;;;;;;;;;;;24.60;99.90;;;;;;5070838;28;20242;-66
2022/07/25 10:27:40;;;;;;;;;;;25.20;99.90;;;;;;5071168;28;19917;-66
2022/07/25 10:30:09;;;;;;;;;;;25.80;99.90;;;;;;5071195;28;19931;-65
2022/07/25 10:32:35;;;;;;;;;;;25.80;99.90;;;;;;5071391;28;20387;-67
2022/07/25 10:35:10;;;;;;;;;;;25.60;99.90;;;;;;5071425;28;19951;-66
2022/07/25 10:37:36;;;;;;;;;;;25.10;99.90;;;;;;5071224;28;20265;-66
2022/07/25 10:40:02;;;;;;;;;;;24.50;99.90;;;;;;5071024;28;19905;-66
2022/07/25 10:42:31;;;;;;;;;;;24.20;99.90;;;;;;5071421;28;19940;-68
2022/07/25 10:45:00;;;;;;;;;;;24.10;99.90;;;;;;5071023;28;20413;-66
2022/07/25 10:47:26;;;;;;;;;;;24.10;99.90;;;;;;5069417;28;19916;-65
2022/07/25 10:49:57;;;;;;;;;;;24.60;99.90;;;;;;5070693;28;20205;-66
2022/07/25 10:52:26;;;;;;;;;;;25.40;99.90;;;;;;5070695;28;19917;-67
2022/07/25 10:54:55;;;;;;;;;;;26.20;99.90;;;;;;5070363;28;19932;-66
2022/07/25 10:57:21;;;;;;;;;;;26.90;99.90;;;;;;5070733;28;19939;-67
2022/07/25 10:59:46;;;;;;;;;;;27.60;99.90;;;;;;5070534;28;19909;-66
2022/07/25 11:02:15;;;;;;;;;;;27.90;99.90;;;;;;5070464;28;20438;-67
2022/07/25 11:04:44;;;;;;;;;;;27.80;99.90;;;;;;5070337;28;19908;-66
2022/07/25 11:07:12;;;;;;;;;;;27.50;99.90;;;;;;5070339;28;20336;-64
2022/07/25 11:09:39;;;;;;;;;;;26.90;99.90;;;;;;5070249;28;19947;-65
2022/07/25 11:12:05;;;;;;;;;;;26.50;99.90;;;;;;5070636;28;20345;-65
2022/07/25 11:14:33;;;;;;;;;;;26.00;99.90;;;;;;5070300;28;19961;-67
2022/07/25 11:17:15;;;;;;;;;;;25.70;99.90;;;;;;5070483;28;19916;-66
2022/07/25 11:19:42;;;;;;;;;;;25.40;99.90;;;;;;5085596;28;19919;-66
2022/07/25 11:22:08;;;;;;;;;;;25.10;99.90;;;;;;5070596;28;20023;-65
2022/07/25 11:24:39;;;;;;;;;;;24.90;99.90;;;;;;5070170;28;20014;-66
2022/07/25 11:27:05;;;;;;;;;;;24.70;99.90;;;;;;5070091;28;19916;-67
2022/07/25 11:29:30;;;;;;;;;;;24.60;99.90;;;;;;5070029;28;20416;-67
2022/07/25 11:32:00;;;;;;;;;;;24.70;99.90;;;;;;5070383;28;19928;-66
2022/07/25 11:34:29;;;;;;;;;;;24.70;99.90;;;;;;5070148;28;19908;-66
2022/07/25 11:36:56;;;;;;;;;;;24.60;99.90;;;;;;5070112;28;20276;-66
2022/07/25 11:39:23;;;;;;;;;;;24.60;99.90;;;;;;5069832;28;20029;-67
2022/07/25 11:41:57;;;;;;;;;;;24.40;99.90;;;;;;5070070;28;20296;-66
2022/07/25 11:44:33;;;;;;;;;;;24.40;99.90;;;;;;5069990;28;20303;-66
2022/07/25 11:46:58;;;;;;;;;;;24.30;99.90;;;;;;5085653;28;19917;-66
2022/07/25 11:49:24;;;;;;;;;;;24.20;99.90;;;;;;5070044;28;20018;-65
2022/07/25 11:51:49;;;;;;;;;;;24.40;99.90;;;;;;5070038;28;20250;-66
2022/07/25 11:54:15;;;;;;;;;;;24.80;99.90;;;;;;5085169;28;19912;-67
2022/07/25 11:56:42;;;;;;;;;;;25.30;99.90;;;;;;5069968;28;19924;-66
2022/07/25 11:59:08;;;;;;;;;;;25.70;99.90;;;;;;5072752;28;20033;-66
2022/07/25 12:01:44;;;;;;;;;;;26.20;99.90;;;;;;5073684;28;19912;-65
2022/07/25 12:04:10;;;;;;;;;;;26.40;99.90;;;;;;5074060;28;19909;-66
2022/07/25 12:06:36;;;;;;;;;;;26.70;99.90;;;;;;5073945;28;19908;-67
2022/07/25 12:09:12;;;;;;;;;;;26.90;99.90;;;;;;5073800;28;20434;-67
2022/07/25 12:11:37;;;;;;;;;;;27.00;99.90;;;;;;5073590;28;19999;-65
2022/07/25 12:14:03;;;;;;;;;;;26.90;99.90;;;;;;5073693;28;19999;-65
2022/07/25 12:16:29;;;;;;;;;;;26.90;99.90;;;;;;5073442;28;19908;-66
2022/07/25 12:18:55;;;;;;;;;;;26.70;99.90;;;;;;5073445;28;19916;-67
2022/07/25 12:21:20;;;;;;;;;;;26.40;99.90;;;;;;5073338;28;19913;-66
2022/07/25 12:23:46;;;;;;;;;;;26.30;99.90;;;;;;5073587;28;20403;-66
2022/07/25 12:26:13;;;;;;;;;;;26.20;99.90;;;;;;5073365;28;19940;-65
2022/07/25 12:28:38;;;;;;;;;;;26.20;99.90;;;;;;5073574;28;20167;-67
2022/07/25 12:31:04;;;;;;;;;;;26.30;99.90;;;;;;5073308;28;20137;-65
2022/07/25 12:33:31;;;;;;;;;;;26.20;99.90;;;;;;5073715;28;19978;-66
2022/07/25 12:35:57;;;;;;;;;;;26.20;99.90;;;;;;5073062;28;19912;-66
2022/07/25 12:38:23;;;;;;;;;;;26.30;99.90;;;;;;5073304;28;20403;-65
2022/07/25 12:40:49;;;;;;;;;;;26.30;99.90;;;;;;5073430;28;19909;-65
2022/07/25 12:43:14;;;;;;;;;;;26.10;99.90;;;;;;5073423;28;19985;-66
2022/07/25 12:45:41;;;;;;;;;;;25.90;99.90;;;;;;5073100;28;19908;-66
2022/07/25 12:48:07;;;;;;;;;;;25.70;99.90;;;;;;5072950;28;20391;-64
2022/07/25 12:50:32;;;;;;;;;;;25.50;99.90;;;;;;5073156;28;19909;-65
2022/07/25 12:52:57;;;;;;;;;;;25.40;99.90;;;;;;5073336;28;19917;-64
2022/07/25 12:55:23;;;;;;;;;;;25.40;99.90;;;;;;5072711;28;20380;-65
2022/07/25 12:57:49;;;;;;;;;;;25.40;99.90;;;;;;5072737;28;19999;-65
2022/07/25 13:00:16;;;;;;;;;;;25.40;99.90;;;;;;5072914;28;20433;-66
2022/07/25 13:02:41;;;;;;;;;;;25.50;99.90;;;;;;5072806;28;19928;-65
2022/07/25 13:05:07;;;;;;;;;;;25.30;99.90;;;;;;5072854;28;19908;-66
2022/07/25 13:07:32;;;;;;;;;;;25.20;99.90;;;;;;5072907;28;20083;-65
2022/07/25 13:09:58;;;;;;;;;;;25.20;99.90;;;;;;5072646;28;19924;-66
2022/07/25 13:12:24;;;;;;;;;;;25.30;99.90;;;;;;5072714;28;19917;-65
2022/07/25 13:14:50;;;;;;;;;;;25.30;99.90;;;;;;5072345;28;19909;-66
2022/07/25 13:17:15;;;;;;;;;;;25.40;99.90;;;;;;5072750;28;20737;-66
2022/07/25 13:19:41;;;;;;;;;;;25.30;99.90;;;;;;5072485;28;19912;-67
2022/07/25 13:22:06;;;;;;;;;;;25.20;99.90;;;;;;5072417;28;19932;-66
2022/07/25 13:24:35;;;;;;;;;;;25.20;99.90;;;;;;5072378;28;19908;-67
2022/07/25 13:27:07;;;;;;;;;;;25.10;99.90;;;;;;5072344;28;19939;-67
2022/07/25 13:29:33;;;;;;;;;;;24.90;99.90;;;;;;5072165;28;19935;-66
2022/07/25 13:31:58;;;;;;;;;;;24.90;99.90;;;;;;5071965;28;19920;-68
2022/07/25 13:34:24;;;;;;;;;;;24.90;99.90;;;;;;5072544;28;19969;-67
2022/07/25 13:36:50;;;;;;;;;;;24.90;99.90;;;;;;5072186;28;19923;-64
2022/07/25 13:39:15;;;;;;;;;;;25.10;99.90;;;;;;5072016;28;20411;-66
2022/07/25 13:41:41;;;;;;;;;;;25.20;99.90;;;;;;5072074;28;19912;-65
2022/07/25 13:44:06;;;;;;;;;;;25.20;99.90;;;;;;5072112;28;19915;-66
2022/07/25 13:46:32;;;;;;;;;;;25.00;99.90;;;;;;5071861;28;20387;-66
2022/07/25 13:48:57;;;;;;;;;;;24.70;99.90;;;;;;5072097;28;19952;-66
2022/07/25 13:51:23;;;;;;;;;;;24.60;99.90;;;;;;5071964;28;19908;-66
2022/07/25 13:53:48;;;;;;;;;;;24.40;99.90;;;;;;5072135;28;19927;-67
2022/07/25 13:56:14;;;;;;;;;;;24.30;99.90;;;;;;5071914;28;20422;-66
2022/07/25 13:58:39;;;;;;;;;;;24.20;99.90;;;;;;5071885;28;19928;-67
2022/07/25 14:01:06;;;;;;;;;;;24.10;99.90;;;;;;5071474;28;20378;-66
2022/07/25 14:03:31;;;;;;;;;;;24.20;99.90;;;;;;5071895;28;19916;-66
2022/07/25 14:05:57;;;;;;;;;;;24.10;99.90;;;;;;5071497;28;19913;-67
2022/07/25 14:08:25;;;;;;;;;;;24.00;99.90;;;;;;5071801;28;20293;-66
2022/07/25 14:10:51;;;;;;;;;;;24.00;99.90;;;;;;5071214;28;19957;-66
2022/07/25 14:13:16;;;;;;;;;;;23.90;99.90;;;;;;5071695;28;19924;-66